ADDS METAR Data INFO
IDs: Format: Raw Decoded Include TAF

Data at: 0935 UTC 11 Dec 2017

PAMY 110356Z AUTO 02021KT 7SM OVC008 M05/M06 A2931 RMK AO2 PK WND 03027/0344 SLP928 T10501061 FZRANO
PAMY 110156Z AUTO 03021KT 9SM OVC008 M06/M06 A2936 RMK AO2 PK WND 02027/0129 SLP945 T10561061 FZRANO
PAMY 110056Z AUTO 03022KT 6SM BR OVC006 M06/M06 A2939 RMK AO2 PK WND 03026/0051 SNB40E52 SLP954 P0000 T10561061 FZRANO
PAMY 102228Z AUTO 03023KT 1 3/4SM -SN BR OVC004 M06/M06 A2945 RMK AO2 PK WND 02026/2226 SNB25 P0000 FZRANO
PAMY 102128Z AUTO 02021KT 2 1/2SM BR OVC004 M06/M07 A2948 RMK AO2 PK WND 03026/2119 FZRANO
PAMY 101956Z AUTO 03022KT 10SM OVC008 M06/M07 A2950 RMK AO2 PK WND 03026/1956 SLP992 T10611072 FZRANO
PAMY 101656Z AUTO 03021KT 10SM OVC012 M06/M07 A2952 RMK AO2 PK WND 03028/1619 SLP999 T10611072 FZRANO
PAMY 101456Z AUTO 02021KT 9SM -SN OVC010 M06/M07 A2955 RMK AO2 PK WND 03026/1442 SLP008 P0000 60000 T10611072 56011 FZRANO
PAMY 101328Z AUTO 02021KT 9SM -SN OVC010 M06/M07 A2956 RMK AO2 P0000 FZRANO
PAMY 101056Z AUTO 02020KT 9SM OVC008 M06/M07 A2960 RMK AO2 SNB39E51 SLP024 P0000 T10561067 FZRANO
PAMY 101045Z AUTO 03016KT 9SM -SN OVC008 M06/M07 A2960 RMK AO2 SNB39 P0000 FZRANO
PAMY 100756Z AUTO 02023G26KT 10SM OVC010 M06/M07 A2961 RMK AO2 PK WND 03029/0657 SLP029 T10561067 FZRANO
PAMY 100656Z AUTO 03023KT 10SM OVC010 M06/M07 A2960 RMK AO2 PK WND 03029/0627 SLP027 T10561067 FZRANO
PAMY 100456Z AUTO 02025KT 10SM OVC012 M05/M07 A2964 RMK AO2 PK WND 02028/0455 SLP038 T10501067 FZRANO
PAMY 100417Z AUTO 02024KT 10SM BKN012 BKN034 OVC100 M05/M07 A2964 RMK AO2 PK WND 03028/0413 FZRANO
PAMY 100356Z AUTO 02020KT 10SM SCT014 BKN034 OVC110 M04/M07 A2965 RMK AO2 PK WND 01028/0339 SLP042 T10441067 FZRANO
PAMY 100256Z AUTO 02021G27KT 10SM OVC012 M04/M06 A2966 RMK AO2 PK WND 02029/0232 SLP047 T10441061 58017 FZRANO
PAMY 100156Z AUTO 01023KT 10SM OVC012 M04/M06 A2968 RMK AO2 PK WND 01027/0145 SLP053 T10441061 FZRANO
PAMY 092156Z AUTO 02020KT 10SM OVC014 M04/M06 A2975 RMK AO2 SLP075 T10441061 FZRANO